Time;durP1;ratioP1;P1;durP2;ratioP2;P2;SDS_P1;SDS_P2;PMS_P1;PMS_P2;Temp;Humidity;BMP_temperature;BMP_pressure;BME280_temperature;BME280_humidity;BME280_pressure;Samples;Min_cycle;Max_cycle;Signal;HPM_P1;HPM_P2
2024/01/18 00:01:27;;;;;;;14.65;3.97;;;;;;;;;;5114130;28;20036;-74
2024/01/18 00:04:32;;;;;;;18.23;4.20;;;;;;;;;;5115082;28;20044;-72
2024/01/18 00:07:36;;;;;;;19.52;4.97;;;;;;;;;;5115030;28;20046;-73
2024/01/18 00:10:40;;;;;;;18.00;4.57;;;;;;;;;;5114829;28;20042;-74
2024/01/18 00:13:47;;;;;;;15.82;5.10;;;17.40;98.40;;;;;;5114039;28;20040;-73
2024/01/18 00:16:51;;;;;;;19.55;4.65;;;;;;;;;;5114691;28;20109;-73
2024/01/18 00:19:55;;;;;;;21.63;5.57;;;;;;;;;;5114404;28;20147;-73
2024/01/18 00:23:00;;;;;;;16.05;5.28;;;;;;;;;;5102180;28;20032;-73
2024/01/18 00:26:05;;;;;;;22.20;4.75;;;;;;;;;;5114784;28;20117;-74
2024/01/18 00:29:09;;;;;;;20.35;3.33;;;;;;;;;;5114629;28;20040;-73
2024/01/18 00:32:13;;;;;;;18.23;3.42;;;;;;;;;;5114580;28;20155;-73
2024/01/18 00:35:18;;;;;;;18.55;3.10;;;;;;;;;;5114492;28;20506;-73
2024/01/18 00:38:22;;;;;;;16.05;3.15;;;;;;;;;;5114357;28;20048;-73
2024/01/18 00:41:33;;;;;;;21.70;3.20;;;;;;;;;;5113519;28;20038;-73
2024/01/18 00:44:37;;;;;;;14.77;2.95;;;;;;;;;;5113448;28;20051;-73
2024/01/18 00:47:41;;;;;;;23.00;3.88;;;;;;;;;;5113979;28;20046;-73
2024/01/18 00:50:46;;;;;;;13.30;2.97;;;;;;;;;;5114275;28;20383;-73
2024/01/18 00:53:50;;;;;;;26.35;4.97;;;;;;;;;;5114202;28;20035;-73
2024/01/18 00:56:54;;;;;;;25.45;5.22;;;;;;;;;;5114687;28;20182;-73
2024/01/18 00:59:58;;;;;;;21.63;4.15;;;;;;;;;;5113325;28;20046;-74
2024/01/18 01:03:02;;;;;;;16.33;3.45;;;;;;;;;;5114569;28;20040;-73
2024/01/18 01:06:10;;;;;;;18.25;3.10;;;;;;;;;;5113965;28;20054;-73
2024/01/18 01:09:14;;;;;;;25.15;4.25;;;;;;;;;;5114119;28;20041;-73
2024/01/18 01:12:18;;;;;;;12.57;2.88;;;;;;;;;;5113023;28;20495;-73
2024/01/18 01:15:23;;;;;;;16.00;2.20;;;;;;;;;;5113720;28;20039;-72
2024/01/18 01:18:27;;;;;;;19.73;3.15;;;;;;;;;;5113203;28;20039;-73
2024/01/18 01:21:31;;;;;;;20.65;3.20;;;;;;;;;;5112626;28;20403;-73
2024/01/18 01:24:38;;;;;;;17.40;2.95;;;;;;;;;;5113089;28;20043;-73
2024/01/18 01:27:42;;;;;;;16.30;3.20;;;;;;;;;;5113421;28;20036;-73
2024/01/18 01:30:47;;;;;;;15.50;3.42;;;;;;;;;;5112618;28;20550;-73
2024/01/18 01:33:51;;;;;;;19.98;3.55;;;;;;;;;;5113438;28;20044;-73
2024/01/18 01:36:56;;;;;;;21.88;3.55;;;;;;;;;;5113421;28;20356;-73
2024/01/18 01:40:00;;;;;;;14.52;3.67;;;;;;;;;;5113065;28;20056;-73
2024/01/18 01:43:04;;;;;;;14.00;3.45;;;;;;;;;;5112397;28;20388;-73
2024/01/18 01:46:08;;;;;;;15.60;3.67;;;;;;;;;;5112944;28;20039;-73
2024/01/18 01:49:13;;;;;;;17.60;3.80;;;;;;;;;;5113163;28;20046;-73
2024/01/18 01:52:18;;;;;;;20.17;3.60;;;;;;;;;;5112983;28;20036;-73
2024/01/18 01:55:22;;;;;;;14.70;3.25;;;;;;;;;;5112958;28;20046;-73
2024/01/18 01:58:26;;;;;;;26.63;3.75;;;;;;;;;;5111123;28;20043;-73
2024/01/18 02:01:30;;;;;;;20.77;3.80;;;17.70;98.10;;;;;;5111755;28;20043;-73
2024/01/18 02:04:36;;;;;;;25.13;4.13;;;;;;;;;;5111841;28;20526;-74
2024/01/18 02:07:40;;;;;;;20.08;3.90;;;;;;;;;;5112325;28;20402;-73
2024/01/18 02:10:45;;;;;;;19.73;3.50;;;;;;;;;;5112583;28;20066;-73
2024/01/18 02:13:49;;;;;;;22.92;4.47;;;;;;;;;;5112415;28;20043;-73
2024/01/18 02:16:53;;;;;;;24.48;5.35;;;;;;;;;;5111632;28;20054;-73
2024/01/18 02:19:57;;;;;;;17.27;4.38;;;;;;;;;;5112248;28;20051;-73
2024/01/18 02:23:06;;;;;;;19.92;3.95;;;17.80;97.70;;;;;;5111570;28;20047;-73
2024/01/18 02:26:10;;;;;;;22.52;4.80;;;;;;;;;;5112432;28;20053;-73
2024/01/18 02:29:15;;;;;;;21.60;5.57;;;;;;;;;;5112133;28;20036;-74
2024/01/18 02:32:19;;;;;;;27.85;6.03;;;;;;;;;;5111837;28;20039;-74
2024/01/18 02:35:23;;;;;;;30.00;3.85;;;;;;;;;;5111847;28;20039;-74
2024/01/18 02:38:28;;;;;;;24.80;5.05;;;;;;;;;;5112366;28;20420;-73
2024/01/18 02:41:32;;;;;;;15.45;4.03;;;;;;;;;;5111839;28;20027;-73
2024/01/18 02:44:38;;;;;;;18.05;3.63;;;17.40;98.20;;;;;;5111209;28;20043;-73
2024/01/18 02:47:42;;;;;;;25.25;3.65;;;;;;;;;;5111161;28;20070;-74
2024/01/18 02:50:46;;;;;;;27.10;4.80;;;;;;;;;;5111872;28;20031;-74
2024/01/18 02:53:50;;;;;;;17.08;3.78;;;;;;;;;;5112001;28;20043;-73
2024/01/18 02:56:55;;;;;;;26.60;4.82;;;;;;;;;;5111652;28;20036;-73
2024/01/18 02:59:59;;;;;;;33.03;5.70;;;;;;;;;;5111890;28;20483;-73
2024/01/18 03:03:04;;;;;;;24.88;4.05;;;;;;;;;;5111564;28;20040;-73
2024/01/18 03:06:08;;;;;;;30.00;5.43;;;;;;;;;;5111784;28;20047;-73
2024/01/18 03:09:12;;;;;;;35.22;4.90;;;;;;;;;;5111672;28;20031;-74
2024/01/18 03:12:17;;;;;;;30.83;5.57;;;;;;;;;;5111618;28;20035;-73
2024/01/18 03:15:21;;;;;;;30.55;4.75;;;;;;;;;;5099112;28;20038;-73
2024/01/18 03:18:25;;;;;;;34.08;4.95;;;;;;;;;;5111139;28;20062;-74
2024/01/18 03:21:29;;;;;;;38.35;5.15;;;;;;;;;;5111007;28;20040;-73
2024/01/18 03:24:34;;;;;;;30.55;5.22;;;;;;;;;;5110636;28;20040;-73
2024/01/18 03:27:39;;;;;;;31.17;5.93;;;;;;;;;;5111423;28;20055;-73
2024/01/18 03:30:43;;;;;;;34.97;6.03;;;;;;;;;;5111400;28;20038;-73
2024/01/18 03:33:48;;;;;;;34.38;6.40;;;;;;;;;;5110683;28;20047;-73
2024/01/18 03:36:53;;;;;;;44.72;7.00;;;;;;;;;;5111541;28;20039;-73
2024/01/18 03:39:57;;;;;;;38.15;5.57;;;;;;;;;;5111472;28;20052;-74
2024/01/18 03:43:01;;;;;;;41.38;6.35;;;;;;;;;;5110716;28;20028;-73
2024/01/18 03:46:05;;;;;;;42.33;6.22;;;;;;;;;;5111463;28;20047;-74
2024/01/18 03:49:10;;;;;;;48.20;7.72;;;;;;;;;;5111342;28;20039;-73
2024/01/18 03:52:16;;;;;;;35.67;6.28;;;;;;;;;;5111284;28;20035;-73
2024/01/18 03:55:21;;;;;;;46.67;6.95;;;;;;;;;;5110957;28;20032;-73
2024/01/18 03:58:26;;;;;;;55.42;7.10;;;;;;;;;;5110959;28;20040;-73
2024/01/18 04:01:33;;;;;;;45.05;8.02;;;16.90;99.90;;;;;;5111155;28;20036;-73
2024/01/18 04:04:38;;;;;;;46.15;6.75;;;;;;;;;;5111288;28;20051;-73
2024/01/18 04:07:42;;;;;;;40.78;6.90;;;;;;;;;;5111216;28;20039;-73
2024/01/18 04:10:46;;;;;;;42.22;6.50;;;;;;;;;;5111017;28;20047;-74
2024/01/18 04:13:51;;;;;;;41.42;6.97;;;;;;;;;;5111159;28;20394;-73
2024/01/18 04:16:55;;;;;;;40.05;7.13;;;;;;;;;;5111247;28;20047;-74
2024/01/18 04:19:59;;;;;;;46.22;6.97;;;;;;;;;;5110698;28;20391;-73
2024/01/18 04:23:03;;;;;;;55.72;8.65;;;;;;;;;;5113938;28;20494;-73
2024/01/18 04:26:08;;;;;;;52.38;7.43;;;;;;;;;;5114502;28;20592;-73
2024/01/18 04:29:12;;;;;;;42.22;6.95;;;;;;;;;;5113694;28;20032;-73
2024/01/18 04:32:17;;;;;;;45.65;6.65;;;;;;;;;;5113489;28;20043;-74
2024/01/18 04:35:21;;;;;;;44.22;7.70;;;;;;;;;;5114402;28;20039;-74
2024/01/18 04:38:26;;;;;;;56.95;8.27;;;;;;;;;;5113503;28;20388;-74
2024/01/18 04:41:30;;;;;;;48.97;7.72;;;;;;;;;;5114357;28;20063;-73
2024/01/18 04:44:34;;;;;;;47.75;6.75;;;;;;;;;;5114529;28;20044;-74
2024/01/18 04:47:38;;;;;;;44.67;7.13;;;;;;;;;;5114093;28;20031;-73
2024/01/18 04:50:43;;;;;;;45.58;7.97;;;;;;;;;;5113937;28;20032;-74
2024/01/18 04:53:47;;;;;;;39.95;6.47;;;;;;;;;;5114195;28;20050;-74
2024/01/18 04:56:52;;;;;;;43.85;7.32;;;;;;;;;;5114199;28;20035;-73
2024/01/18 04:59:55;;;;;;;48.67;9.10;;;;;;;;;;5113832;28;20048;-74
2024/01/18 05:03:00;;;;;;;53.22;9.43;;;;;;;;;;5114061;28;20036;-74
2024/01/18 05:06:04;;;;;;;53.83;9.80;;;;;;;;;;5113876;28;20043;-74
2024/01/18 05:09:09;;;;;;;51.10;8.68;;;;;;;;;;5101438;28;20395;-74
2024/01/18 05:12:13;;;;;;;49.15;8.68;;;;;;;;;;5112963;28;20054;-74
2024/01/18 05:15:18;;;;;;;49.88;8.98;;;;;;;;;;5113705;28;20041;-73
2024/01/18 05:18:23;;;;;;;43.45;8.00;;;;;;;;;;5113313;28;20035;-73
2024/01/18 05:21:27;;;;;;;37.13;7.68;;;;;;;;;;5113494;28;20470;-73
2024/01/18 05:24:32;;;;;;;58.85;10.65;;;;;;;;;;5113693;28;20043;-74
2024/01/18 05:27:36;;;;;;;43.10;8.07;;;;;;;;;;5113931;28;20069;-74
2024/01/18 05:30:40;;;;;;;38.53;7.47;;;;;;;;;;5112686;28;20035;-73
2024/01/18 05:33:44;;;;;;;48.42;8.85;;;;;;;;;;5112469;28;20641;-73
2024/01/18 05:36:49;;;;;;;40.63;7.90;;;;;;;;;;5113315;28;20040;-73
2024/01/18 05:39:53;;;;;;;47.35;8.02;;;;;;;;;;5112440;28;20048;-73
2024/01/18 05:42:57;;;;;;;39.92;7.88;;;;;;;;;;5113261;28;20042;-73
2024/01/18 05:46:02;;;;;;;53.30;8.35;;;;;;;;;;5113247;28;20044;-73
2024/01/18 05:49:07;;;;;;;57.58;8.90;;;;;;;;;;5113163;28;20031;-73
2024/01/18 05:52:11;;;;;;;44.40;7.10;;;;;;;;;;5112878;28;20035;-73
2024/01/18 05:55:15;;;;;;;45.15;7.28;;;;;;;;;;5112105;28;20039;-73
2024/01/18 05:58:19;;;;;;;44.28;7.68;;;;;;;;;;5112496;28;20039;-73
2024/01/18 06:01:24;;;;;;;51.53;9.20;;;;;;;;;;5111716;28;20055;-73
2024/01/18 06:04:30;;;;;;;40.03;7.78;;;;;;;;;;5111820;28;20040;-73
2024/01/18 06:07:34;;;;;;;38.53;7.38;;;;;;;;;;5112671;28;20038;-73
2024/01/18 06:10:39;;;;;;;41.03;8.20;;;;;;;;;;5112552;28;20043;-73
2024/01/18 06:13:43;;;;;;;53.67;8.50;;;;;;;;;;5112513;28;20038;-73
2024/01/18 06:16:47;;;;;;;43.08;7.47;;;;;;;;;;5112528;28;20054;-73
2024/01/18 06:19:51;;;;;;;53.88;9.18;;;;;;;;;;5111919;28;20047;-73
2024/01/18 06:22:58;;;;;;;48.13;8.88;;;;;;;;;;5111527;28;20032;-73
2024/01/18 06:26:02;;;;;;;51.88;9.23;;;;;;;;;;5111428;28;20040;-74
2024/01/18 06:29:07;;;;;;;48.88;7.47;;;;;;;;;;5111812;28;20111;-72
2024/01/18 06:32:11;;;;;;;47.90;8.82;;;;;;;;;;5112041;28;20502;-72
2024/01/18 06:35:16;;;;;;;41.60;8.40;;;;;;;;;;5112115;28;20047;-72
2024/01/18 06:38:20;;;;;;;45.50;7.85;;;;;;;;;;5111861;28;20039;-72
2024/01/18 06:41:25;;;;;;;42.65;7.72;;;;;;;;;;5111931;28;20516;-72
2024/01/18 06:44:30;;;;;;;49.90;9.07;;;;;;;;;;5111615;28;20035;-72
2024/01/18 06:47:35;;;;;;;69.28;11.25;;;;;;;;;;5111038;28;20036;-72
2024/01/18 06:50:39;;;;;;;51.33;10.63;;;;;;;;;;5110796;28;20042;-72
2024/01/18 06:53:44;;;;;;;55.42;10.60;;;;;;;;;;5111679;28;20512;-72
2024/01/18 06:56:48;;;;;;;46.17;10.23;;;;;;;;;;5110898;28;20059;-72
2024/01/18 06:59:54;;;;;;;37.80;9.57;;;;;;;;;;5110552;28;20510;-72
2024/01/18 07:02:58;;;;;;;45.35;7.50;;;;;;;;;;5111688;28;20031;-72
2024/01/18 07:06:04;;;;;;;44.92;9.18;;;;;;;;;;5110549;28;20050;-72
2024/01/18 07:09:08;;;;;;;51.05;8.80;;;;;;;;;;5111405;28;20387;-73
2024/01/18 07:12:12;;;;;;;44.13;8.90;;;;;;;;;;5111426;28;20031;-72
2024/01/18 07:15:17;;;;;;;45.85;10.27;;;;;;;;;;5111224;28;20415;-73
2024/01/18 07:18:21;;;;;;;61.72;11.10;;;;;;;;;;5111238;28;20050;-72
2024/01/18 07:21:25;;;;;;;57.38;10.50;;;;;;;;;;5111183;28;20038;-73
2024/01/18 07:24:30;;;;;;;62.33;13.23;;;;;;;;;;5110968;28;20043;-72
2024/01/18 07:27:35;;;;;;;35.10;9.73;;;;;;;;;;5110981;28;20418;-71
2024/01/18 07:30:39;;;;;;;55.63;9.25;;;;;;;;;;5110152;28;20036;-73
2024/01/18 07:33:43;;;;;;;41.60;8.52;;;;;;;;;;5111314;28;20482;-73
2024/01/18 07:36:48;;;;;;;71.35;11.38;;;;;;;;;;5110287;28;20094;-71
2024/01/18 07:39:52;;;;;;;57.03;9.85;;;;;;;;;;5111441;28;20054;-71
2024/01/18 07:42:56;;;;;;;51.65;8.45;;;;;;;;;;5111233;28;20024;-72
2024/01/18 07:46:00;;;;;;;65.75;9.77;;;;;;;;;;5111249;28;20043;-73
2024/01/18 07:49:05;;;;;;;65.65;8.93;;;;;;;;;;5098613;28;20038;-77
2024/01/18 07:52:09;;;;;;;48.60;9.52;;;;;;;;;;5111115;28;20050;-72
2024/01/18 07:55:13;;;;;;;43.38;7.82;;;;;;;;;;5111211;28;20105;-73
2024/01/18 07:58:18;;;;;;;67.25;10.00;;;;;;;;;;5114816;28;20047;-72
2024/01/18 08:01:22;;;;;;;73.00;9.70;;;;;;;;;;5114733;28;20498;-73
2024/01/18 08:04:29;;;;;;;58.08;10.10;;;;;;;;;;5114962;28;20036;-76
2024/01/18 08:07:33;;;;;;;49.40;9.65;;;;;;;;;;5114714;28;20050;-73
2024/01/18 08:10:38;;;;;;;66.68;9.80;;;;;;;;;;5114695;28;20082;-73
2024/01/18 08:13:42;;;;;;;71.78;11.38;;;;;;;;;;5113892;28;20036;-73
2024/01/18 08:16:46;;;;;;;67.85;10.07;;;;;;;;;;5114590;28;20058;-73
2024/01/18 08:19:51;;;;;;;72.72;12.93;;;;;;;;;;5101525;28;20510;-73
2024/01/18 08:22:55;;;;;;;79.80;10.93;;;;;;;;;;5114689;28;20038;-75
2024/01/18 08:26:00;;;;;;;79.93;9.82;;;;;;;;;;5113388;28;20050;-73
2024/01/18 08:29:04;;;;;;;77.32;10.98;;;;;;;;;;5113503;28;20039;-73
2024/01/18 08:32:08;;;;;;;70.40;10.75;;;;;;;;;;5114108;28;20062;-73
2024/01/18 08:35:12;;;;;;;67.70;9.77;;;;;;;;;;5114284;28;20050;-75
2024/01/18 08:38:17;;;;;;;70.97;11.68;;;;;;;;;;5114599;28;20395;-75
2024/01/18 08:41:21;;;;;;;65.22;11.15;;;;;;;;;;5114274;28;20059;-74
2024/01/18 08:44:27;;;;;;;76.60;10.55;;;;;;;;;;5113958;28;20034;-73
2024/01/18 08:47:32;;;;;;;86.25;12.55;;;;;;;;;;5114086;28;20054;-73
2024/01/18 08:50:37;;;;;;;74.15;12.43;;;;;;;;;;5113977;28;20034;-73
2024/01/18 08:53:42;;;;;;;66.13;9.82;;;;;;;;;;5113874;28;20038;-72
2024/01/18 08:56:47;;;;;;;89.68;12.20;;;;;;;;;;5113942;28;20043;-74
2024/01/18 08:59:51;;;;;;;81.50;11.07;;;;;;;;;;5113542;28;20055;-72
2024/01/18 09:02:55;;;;;;;74.30;13.43;;;;;;;;;;5113093;28;20042;-71
2024/01/18 09:05:59;;;;;;;51.40;9.63;;;;;;;;;;5113762;28;20506;-72
2024/01/18 09:09:04;;;;;;;73.88;11.05;;;;;;;;;;5113505;28;20039;-73
2024/01/18 09:12:08;;;;;;;67.53;12.63;;;;;;;;;;5112771;28;20043;-72
2024/01/18 09:15:13;;;;;;;76.00;12.07;;;;;;;;;;5113753;28;20054;-71
2024/01/18 09:18:17;;;;;;;74.63;11.15;;;;;;;;;;5112807;28;20070;-72
2024/01/18 09:21:22;;;;;;;64.93;12.32;;;;;;;;;;5112598;28;20051;-75
2024/01/18 09:24:26;;;;;;;62.60;10.05;;;;;;;;;;5100887;28;20042;-74
2024/01/18 09:27:31;;;;;;;66.75;11.90;;;;;;;;;;5113113;28;20442;-74
2024/01/18 09:30:35;;;;;;;63.70;10.15;;;;;;;;;;5113226;28;20038;-74
2024/01/18 09:33:39;;;;;;;80.85;11.95;;;;;;;;;;5112974;28;20093;-74
2024/01/18 09:36:43;;;;;;;76.82;12.43;;;;;;;;;;5113341;28;20038;-75
2024/01/18 09:39:47;;;;;;;67.03;10.95;;;;;;;;;;5112212;28;20706;-74
2024/01/18 09:42:52;;;;;;;64.20;11.07;;;;;;;;;;5113058;28;20051;-74
2024/01/18 09:45:58;;;;;;;60.42;10.10;;;21.00;99.90;;;;;;5112931;28;20110;-75
2024/01/18 09:49:02;;;;;;;69.07;10.85;;;;;;;;;;5112884;28;20612;-71
2024/01/18 09:52:06;;;;;;;70.43;11.02;;;;;;;;;;5112958;28;20509;-73
2024/01/18 09:55:11;;;;;;;57.60;10.57;;;;;;;;;;5112877;28;20045;-73
2024/01/18 09:58:15;;;;;;;54.80;10.77;;;;;;;;;;5112907;28;20042;-76
2024/01/18 10:01:20;;;;;;;79.82;12.43;;;20.40;99.90;;;;;;5112455;28;20059;-74
2024/01/18 10:04:28;;;;;;;67.43;12.30;;;;;;;;;;5112741;28;20494;-74
2024/01/18 10:07:32;;;;;;;73.97;11.98;;;;;;;;;;5112269;28;20035;-72
2024/01/18 10:10:36;;;;;;;60.22;10.85;;;;;;;;;;5112251;28;20042;-73
2024/01/18 10:13:49;;;;;;;73.80;12.05;;;20.90;99.90;;;;;;5112429;28;20051;-73
2024/01/18 10:16:53;;;;;;;62.47;9.90;;;;;;;;;;5112817;28;20054;-73
2024/01/18 10:20:00;;;;;;;63.60;10.05;;;21.10;99.90;;;;;;5110633;28;20067;-71
2024/01/18 10:23:04;;;;;;;63.38;11.57;;;;;;;;;;5111584;28;20396;-72
2024/01/18 10:26:09;;;;;;;66.75;11.85;;;20.80;99.90;;;;;;5112080;28;20039;-72
2024/01/18 10:29:13;;;;;;;62.22;10.57;;;;;;;;;;5112149;28;20050;-75
2024/01/18 10:32:18;;;;;;;60.97;11.10;;;;;;;;;;5112288;28;20050;-72
2024/01/18 10:35:24;;;;;;;64.95;9.80;;;21.40;99.90;;;;;;5111169;28;20050;-73
2024/01/18 10:38:38;;;;;;;59.65;9.88;;;;;;;;;;5111687;28;20054;-74
2024/01/18 10:41:43;;;;;;;67.18;10.00;;;;;;;;;;5113719;28;20047;-71
2024/01/18 10:44:49;;;;;;;113.10;13.45;;;20.40;99.90;;;;;;5113829;28;20047;-71
2024/01/18 10:47:56;;;;;;;56.38;9.85;;;20.40;99.90;;;;;;5111471;28;20050;-76
2024/01/18 10:51:02;;;;;;;76.50;12.93;;;20.10;99.90;;;;;;5111941;28;20101;-72
2024/01/18 10:54:10;;;;;;;46.45;7.97;;;;;;;;;;5111622;28;20058;-75
2024/01/18 10:57:14;;;;;;;49.10;10.75;;;;;;;;;;5111541;28;20387;-70
2024/01/18 11:00:19;;;;;;;39.38;8.73;;;;;;;;;;5111515;28;20411;-73
2024/01/18 11:03:24;;;;;;;41.20;6.85;;;;;;;;;;5111467;28;20366;-73
2024/01/18 11:06:28;;;;;;;31.45;6.25;;;20.40;99.90;;;;;;5111464;28;20040;-72
2024/01/18 11:09:34;;;;;;;26.13;6.55;;;;;;;;;;5111279;28;20046;-71
2024/01/18 11:12:43;;;;;;;28.77;5.72;;;20.60;98.90;;;;;;5111578;28;20047;-72
2024/01/18 11:15:48;;;;;;;33.13;6.53;;;;;;;;;;5111594;28;20046;-71
2024/01/18 11:18:59;;;;;;;28.52;6.28;;;21.00;97.20;;;;;;5111133;28;20513;-72
2024/01/18 11:22:04;;;;;;;25.08;5.18;;;;;;;;;;5111500;28;20521;-72
2024/01/18 11:25:09;;;;;;;34.15;6.32;;;20.70;96.10;;;;;;5111518;28;20047;-71
2024/01/18 11:28:24;;;;;;;30.40;5.40;;;21.30;96.10;;;;;;5111394;28;20046;-70
2024/01/18 11:31:50;;;;;;;32.70;4.93;;;21.00;96.10;;;;;;5111772;28;20058;-71
2024/01/18 11:35:12;;;;;;;31.40;5.10;;;21.10;95.00;;;;;;5115345;28;20058;-70
2024/01/18 11:38:32;;;;;;;26.65;4.75;;;21.00;94.70;;;;;;5115174;28;20043;-70
2024/01/18 11:41:37;;;;;;;13.82;3.63;;;;;;;;;;5115281;28;20051;-71
2024/01/18 11:44:50;;;;;;;16.35;3.30;;;21.10;93.70;;;;;;5114209;28;20150;-70
2024/01/18 11:47:54;;;;;;;13.77;3.00;;;;;;;;;;5115354;28;20142;-70
2024/01/18 11:50:59;;;;;;;16.63;2.53;;;;;;;;;;5115320;28;20036;-70
2024/01/18 11:54:04;;;;;;;17.65;3.22;;;20.80;93.00;;;;;;5114914;28;20042;-72
2024/01/18 11:57:14;;;;;;;8.27;2.35;;;20.70;92.40;;;;;;5115464;28;20498;-72
2024/01/18 12:00:19;;;;;;;15.32;2.78;;;20.90;92.60;;;;;;5114651;28;20506;-69
2024/01/18 12:03:24;;;;;;;15.07;3.50;;;19.90;92.20;;;;;;5114999;28;20034;-70
2024/01/18 12:06:30;;;;;;;19.45;3.55;;;;;;;;;;5113933;28;20070;-70
2024/01/18 12:09:34;;;;;;;17.58;3.47;;;20.80;92.50;;;;;;5114751;28;20031;-70
2024/01/18 12:12:41;;;;;;;21.10;4.15;;;21.70;93.60;;;;;;5114912;28;20093;-70
2024/01/18 12:15:45;;;;;;;19.15;3.72;;;;;;;;;;5114713;28;20043;-69
2024/01/18 12:18:50;;;;;;;20.77;3.63;;;;;;;;;;5114299;28;20054;-71
2024/01/18 12:21:55;;;;;;;21.50;3.60;;;;;;;;;;5114744;28;20050;-70
2024/01/18 12:24:59;;;;;;;20.38;4.18;;;;;;;;;;5114070;28;20043;-70
2024/01/18 12:28:04;;;;;;;34.97;7.43;;;19.40;95.50;;;;;;5114349;28;20048;-71
2024/01/18 12:31:08;;;;;;;51.85;8.48;;;;;;;;;;5114132;28;20046;-71
2024/01/18 12:34:12;;;;;;;56.50;9.45;;;;;;;;;;5114171;28;20035;-70
2024/01/18 12:37:16;;;;;;;59.15;9.02;;;;;;;;;;5114459;28;20046;-70
2024/01/18 12:40:21;;;;;;;65.78;11.07;;;;;;;;;;5113987;28;20229;-70
2024/01/18 12:43:25;;;;;;;58.53;9.23;;;;;;;;;;5113364;28;20074;-70
2024/01/18 12:46:29;;;;;;;60.42;9.43;;;;;;;;;;5113870;28;20407;-70
2024/01/18 12:49:34;;;;;;;48.30;8.85;;;;;;;;;;5113996;28;20044;-70
2024/01/18 12:52:38;;;;;;;58.00;8.95;;;;;;;;;;5113115;28;20050;-70
2024/01/18 12:55:43;;;;;;;65.97;9.77;;;;;;;;;;5113749;28;20042;-70
2024/01/18 12:58:47;;;;;;;54.00;8.63;;;;;;;;;;5113884;28;20035;-71
2024/01/18 13:01:52;;;;;;;44.65;7.88;;;;;;;;;;5113741;28;20039;-69
2024/01/18 13:04:58;;;;;;;51.05;7.82;;;19.90;98.70;;;;;;5113674;28;20039;-71
2024/01/18 13:08:03;;;;;;;46.03;8.95;;;;;;;;;;5113522;28;20043;-69
2024/01/18 13:11:08;;;;;;;47.22;8.18;;;21.10;99.00;;;;;;5113626;28;20066;-69
2024/01/18 13:14:15;;;;;;;45.70;8.00;;;20.60;99.20;;;;;;5113711;28;20051;-70
2024/01/18 13:17:20;;;;;;;39.30;7.30;;;;;;;;;;5099557;28;20513;-73
2024/01/18 13:20:24;;;;;;;48.80;7.88;;;;;;;;;;5111749;28;20047;-73
2024/01/18 13:23:28;;;;;;;39.95;8.13;;;;;;;;;;5111860;28;20224;-71
2024/01/18 13:26:32;;;;;;;39.13;6.90;;;;;;;;;;5113174;28;20050;-71
2024/01/18 13:29:37;;;;;;;51.30;8.07;;;;;;;;;;5112755;28;20486;-72
2024/01/18 13:32:41;;;;;;;48.10;8.57;;;;;;;;;;5113248;28;20043;-72
2024/01/18 13:35:45;;;;;;;43.95;7.45;;;;;;;;;;5113098;28;20664;-73
2024/01/18 13:38:50;;;;;;;60.03;9.30;;;;;;;;;;5112376;28;20027;-72
2024/01/18 13:41:54;;;;;;;47.42;7.90;;;;;;;;;;5113336;28;20072;-75
2024/01/18 13:44:58;;;;;;;57.15;9.30;;;;;;;;;;5113091;28;20603;-74
2024/01/18 13:48:03;;;;;;;50.75;9.48;;;;;;;;;;5113108;28;20067;-72
2024/01/18 13:51:07;;;;;;;51.03;9.68;;;;;;;;;;5113068;28;20035;-73
2024/01/18 13:54:11;;;;;;;71.22;11.50;;;;;;;;;;5111986;28;20055;-73
2024/01/18 13:57:16;;;;;;;58.60;9.18;;;;;;;;;;5112728;28;20050;-74
2024/01/18 14:00:20;;;;;;;67.00;10.80;;;;;;;;;;5112542;28;20054;-77
2024/01/18 14:03:24;;;;;;;58.10;9.88;;;;;;;;;;5111699;28;20043;-74
2024/01/18 14:06:29;;;;;;;62.17;10.13;;;;;;;;;;5112693;28;20047;-74
2024/01/18 14:09:34;;;;;;;56.45;9.77;;;;;;;;;;5112540;28;20052;-72
2024/01/18 14:12:39;;;;;;;60.33;9.90;;;;;;;;;;5099942;28;20044;-73
2024/01/18 14:15:43;;;;;;;69.35;12.18;;;;;;;;;;5112315;28;20051;-76
2024/01/18 14:18:48;;;;;;;75.00;11.80;;;;;;;;;;5111490;28;20440;-77
2024/01/18 14:21:52;;;;;;;79.22;13.48;;;;;;;;;;5112443;28;20062;-79
2024/01/18 14:24:56;;;;;;;74.68;11.63;;;;;;;;;;5112580;28;20046;-77
2024/01/18 14:28:01;;;;;;;78.70;10.82;;;;;;;;;;5111416;28;20043;-79
2024/01/18 14:31:05;;;;;;;69.15;12.18;;;;;;;;;;5112059;28;20046;-75
2024/01/18 14:34:10;;;;;;;85.80;12.73;;;;;;;;;;5112007;28;20502;-74
2024/01/18 14:37:14;;;;;;;66.32;11.95;;;;;;;;;;5111793;28;20043;-76
2024/01/18 14:40:19;;;;;;;62.15;12.40;;;;;;;;;;5111784;28;20065;-74
2024/01/18 14:43:23;;;;;;;59.25;12.05;;;;;;;;;;5112146;28;20487;-75
2024/01/18 14:46:27;;;;;;;79.25;12.23;;;;;;;;;;5112007;28;20058;-72
2024/01/18 14:49:32;;;;;;;75.00;11.02;;;;;;;;;;5110763;28;20034;-73
2024/01/18 14:52:36;;;;;;;73.47;12.10;;;;;;;;;;5111555;28;20058;-74
2024/01/18 14:55:41;;;;;;;69.35;11.50;;;;;;;;;;5111766;28;20042;-73
2024/01/18 14:58:45;;;;;;;78.97;12.32;;;;;;;;;;5111721;28;20050;-73
2024/01/18 15:01:49;;;;;;;76.05;11.85;;;;;;;;;;5111690;28;20532;-72
2024/01/18 15:04:54;;;;;;;74.22;11.13;;;;;;;;;;5111814;28;20042;-72
2024/01/18 15:07:58;;;;;;;74.25;11.27;;;;;;;;;;5110978;28;20498;-70
2024/01/18 15:11:02;;;;;;;81.30;12.50;;;;;;;;;;5111282;28;20039;-70
2024/01/18 15:14:07;;;;;;;81.93;12.95;;;;;;;;;;5111333;28;20039;-72
2024/01/18 15:17:11;;;;;;;71.72;12.65;;;;;;;;;;5110500;28;20494;-71
2024/01/18 15:20:16;;;;;;;71.72;11.00;;;;;;;;;;5110924;28;20067;-74
2024/01/18 15:23:20;;;;;;;82.40;12.45;;;;;;;;;;5111613;28;20042;-72
2024/01/18 15:26:24;;;;;;;73.15;11.88;;;;;;;;;;5111005;28;20469;-71
2024/01/18 15:29:28;;;;;;;73.20;13.73;;;;;;;;;;5111334;28;20075;-73
2024/01/18 15:32:33;;;;;;;70.60;12.98;;;;;;;;;;5111299;28;20117;-72
2024/01/18 15:35:38;;;;;;;63.25;12.05;;;;;;;;;;5111292;28;20498;-71
2024/01/18 15:38:42;;;;;;;74.80;10.88;;;;;;;;;;5110910;28;20042;-76
2024/01/18 15:41:46;;;;;;;77.15;11.32;;;;;;;;;;5111287;28;20506;-75
2024/01/18 15:44:50;;;;;;;82.57;12.40;;;;;;;;;;5111191;28;20046;-76
2024/01/18 15:47:55;;;;;;;83.93;13.93;;;;;;;;;;5111571;28;20046;-73
2024/01/18 15:51:03;;;;;;;79.78;13.20;;;;;;;;;;5110381;28;20035;-74
2024/01/18 15:54:07;;;;;;;65.88;10.95;;;;;;;;;;5111797;28;20047;-74
2024/01/18 15:57:13;;;;;;;89.22;13.63;;;;;;;;;;5110260;28;20038;-74
2024/01/18 16:00:17;;;;;;;73.05;11.30;;;;;;;;;;5109795;28;20047;-73
2024/01/18 16:03:21;;;;;;;83.22;13.13;;;;;;;;;;5109779;28;20038;-74
2024/01/18 16:06:26;;;;;;;90.28;15.52;;;;;;;;;;5110420;28;20534;-73
2024/01/18 16:09:30;;;;;;;76.38;13.68;;;;;;;;;;5110870;28;20051;-73
2024/01/18 16:12:35;;;;;;;93.47;13.75;;;;;;;;;;5110609;28;20035;-74
2024/01/18 16:15:39;;;;;;;86.78;12.63;;;;;;;;;;5110579;28;20050;-74
2024/01/18 16:18:43;;;;;;;86.35;13.73;;;;;;;;;;5113271;28;20050;-74
2024/01/18 16:21:48;;;;;;;82.80;12.82;;;;;;;;;;5114747;28;20102;-74
2024/01/18 16:24:52;;;;;;;73.18;12.18;;;;;;;;;;5114965;28;20043;-75
2024/01/18 16:27:58;;;;;;;70.43;11.10;;;;;;;;;;5113310;28;20051;-72
2024/01/18 16:31:02;;;;;;;75.10;11.57;;;;;;;;;;5114677;28;20394;-74
2024/01/18 16:34:07;;;;;;;86.35;14.10;;;;;;;;;;5114680;28;20043;-73
2024/01/18 16:37:11;;;;;;;89.13;14.30;;;;;;;;;;5114202;28;20288;-73
2024/01/18 16:40:16;;;;;;;95.68;13.68;;;;;;;;;;5114267;28;20059;-73
2024/01/18 16:43:20;;;;;;;100.22;15.85;;;;;;;;;;5101510;28;20042;-74
2024/01/18 16:46:24;;;;;;;85.72;14.88;;;;;;;;;;5113820;28;20053;-79
2024/01/18 16:49:29;;;;;;;95.07;13.18;;;;;;;;;;5113428;28;20394;-74
2024/01/18 16:52:33;;;;;;;92.90;14.07;;;;;;;;;;5114515;28;20089;-75
2024/01/18 16:55:38;;;;;;;77.88;12.55;;;;;;;;;;5114691;28;20050;-76
2024/01/18 16:58:43;;;;;;;78.13;15.02;;;;;;;;;;5113098;28;20043;-75
2024/01/18 17:01:48;;;;;;;85.55;14.20;;;;;;;;;;5114131;28;20050;-74
2024/01/18 17:04:52;;;;;;;97.68;14.82;;;;;;;;;;5114414;28;20123;-75
2024/01/18 17:07:56;;;;;;;99.38;15.13;;;;;;;;;;5113064;28;20058;-73
2024/01/18 17:11:01;;;;;;;78.65;12.73;;;;;;;;;;5113626;28;20101;-74
2024/01/18 17:14:06;;;;;;;81.68;13.60;;;;;;;;;;5113747;28;20101;-75
2024/01/18 17:17:10;;;;;;;86.40;14.15;;;;;;;;;;5113008;28;20490;-78
2024/01/18 17:20:15;;;;;;;90.28;13.88;;;;;;;;;;5100357;28;20141;-78
2024/01/18 17:23:19;;;;;;;81.82;13.80;;;;;;;;;;5112763;28;20059;-81
2024/01/18 17:26:25;;;;;;;73.10;12.10;;;17.00;99.90;;;;;;5113652;28;20046;-79
2024/01/18 17:29:29;;;;;;;84.63;13.75;;;;;;;;;;5112799;28;20047;-75
2024/01/18 17:32:34;;;;;;;82.72;14.30;;;;;;;;;;5113979;28;20043;-80
2024/01/18 17:35:38;;;;;;;89.75;14.43;;;;;;;;;;5112654;28;20038;-77
2024/01/18 17:38:42;;;;;;;82.55;12.70;;;;;;;;;;5100774;28;20039;-79
2024/01/18 17:41:47;;;;;;;105.68;16.65;;;;;;;;;;5112065;28;20058;-75
2024/01/18 17:44:51;;;;;;;90.45;13.20;;;;;;;;;;5112904;28;20042;-83
2024/01/18 17:47:55;;;;;;;92.68;14.20;;;;;;;;;;5114070;28;20038;-75
2024/01/18 17:51:01;;;;;;;98.65;14.15;;;;;;;;;;5112858;28;20450;-74